sensor_id;sensor_type;location;lat;lon;timestamp;temperature;humidity
45008;DHT22;30743;52.008;5.644;2023-12-20T00:02:18;11.40;99.90
45008;DHT22;30743;52.008;5.644;2023-12-20T00:04:43;11.30;99.90
45008;DHT22;30743;52.008;5.644;2023-12-20T00:07:09;10.90;99.90
45008;DHT22;30743;52.008;5.644;2023-12-20T00:09:34;10.80;99.90
45008;DHT22;30743;52.008;5.644;2023-12-20T00:12:00;10.90;99.90
45008;DHT22;30743;52.008;5.644;2023-12-20T00:14:26;11.00;99.90
45008;DHT22;30743;52.008;5.644;2023-12-20T00:16:51;12.40;99.90
45008;DHT22;30743;52.008;5.644;2023-12-20T00:19:17;11.00;99.90
45008;DHT22;30743;52.008;5.644;2023-12-20T00:21:42;11.10;99.90
45008;DHT22;30743;52.008;5.644;2023-12-20T00:24:08;10.90;99.90
45008;DHT22;30743;52.008;5.644;2023-12-20T00:26:33;10.90;99.90
45008;DHT22;30743;52.008;5.644;2023-12-20T00:28:59;10.70;99.90
45008;DHT22;30743;52.008;5.644;2023-12-20T00:31:25;10.60;99.90
45008;DHT22;30743;52.008;5.644;2023-12-20T00:33:50;10.40;99.90
45008;DHT22;30743;52.008;5.644;2023-12-20T00:36:16;10.30;99.90
45008;DHT22;30743;52.008;5.644;2023-12-20T00:38:41;10.00;99.90
45008;DHT22;30743;52.008;5.644;2023-12-20T00:41:07;10.70;99.90
45008;DHT22;30743;52.008;5.644;2023-12-20T00:43:33;10.20;99.90
45008;DHT22;30743;52.008;5.644;2023-12-20T00:45:58;10.10;99.90
45008;DHT22;30743;52.008;5.644;2023-12-20T00:48:25;10.00;99.90
45008;DHT22;30743;52.008;5.644;2023-12-20T00:50:52;10.00;99.90
45008;DHT22;30743;52.008;5.644;2023-12-20T00:53:18;9.90;99.90
45008;DHT22;30743;52.008;5.644;2023-12-20T00:55:44;10.10;99.90
45008;DHT22;30743;52.008;5.644;2023-12-20T00:58:10;9.70;99.90
45008;DHT22;30743;52.008;5.644;2023-12-20T01:00:36;9.70;99.90
45008;DHT22;30743;52.008;5.644;2023-12-20T01:03:01;9.60;99.90
45008;DHT22;30743;52.008;5.644;2023-12-20T01:05:27;9.60;99.90
45008;DHT22;30743;52.008;5.644;2023-12-20T01:07:52;9.70;99.90
45008;DHT22;30743;52.008;5.644;2023-12-20T01:10:18;9.90;99.90
45008;DHT22;30743;52.008;5.644;2023-12-20T01:12:44;10.10;99.90
45008;DHT22;30743;52.008;5.644;2023-12-20T01:15:10;10.00;99.90
45008;DHT22;30743;52.008;5.644;2023-12-20T01:17:35;10.00;99.90
45008;DHT22;30743;52.008;5.644;2023-12-20T01:20:01;9.90;99.90
45008;DHT22;30743;52.008;5.644;2023-12-20T01:22:27;9.90;99.90
45008;DHT22;30743;52.008;5.644;2023-12-20T01:24:52;9.90;99.90
45008;DHT22;30743;52.008;5.644;2023-12-20T01:27:18;9.80;99.90
45008;DHT22;30743;52.008;5.644;2023-12-20T01:29:44;9.60;99.90
45008;DHT22;30743;52.008;5.644;2023-12-20T01:32:09;9.40;99.90
45008;DHT22;30743;52.008;5.644;2023-12-20T01:34:35;9.30;99.90
45008;DHT22;30743;52.008;5.644;2023-12-20T01:37:01;9.20;99.90
45008;DHT22;30743;52.008;5.644;2023-12-20T01:39:27;9.40;99.90
45008;DHT22;30743;52.008;5.644;2023-12-20T01:41:53;9.30;99.90
45008;DHT22;30743;52.008;5.644;2023-12-20T01:44:19;9.20;99.90
45008;DHT22;30743;52.008;5.644;2023-12-20T01:46:45;9.30;99.90
45008;DHT22;30743;52.008;5.644;2023-12-20T01:49:11;9.30;99.90
45008;DHT22;30743;52.008;5.644;2023-12-20T01:51:37;9.20;99.90
45008;DHT22;30743;52.008;5.644;2023-12-20T01:54:03;9.30;99.90
45008;DHT22;30743;52.008;5.644;2023-12-20T01:56:30;9.20;99.90
45008;DHT22;30743;52.008;5.644;2023-12-20T01:58:57;9.50;99.90
45008;DHT22;30743;52.008;5.644;2023-12-20T02:01:23;9.20;99.90
45008;DHT22;30743;52.008;5.644;2023-12-20T02:03:50;10.00;99.90
45008;DHT22;30743;52.008;5.644;2023-12-20T02:06:18;9.50;99.90
45008;DHT22;30743;52.008;5.644;2023-12-20T02:08:43;9.40;99.90
45008;DHT22;30743;52.008;5.644;2023-12-20T02:11:10;9.40;99.90
45008;DHT22;30743;52.008;5.644;2023-12-20T02:13:35;9.60;99.90
45008;DHT22;30743;52.008;5.644;2023-12-20T02:16:01;9.60;99.90
45008;DHT22;30743;52.008;5.644;2023-12-20T02:18:27;9.70;99.90
45008;DHT22;30743;52.008;5.644;2023-12-20T02:20:53;9.70;99.90
45008;DHT22;30743;52.008;5.644;2023-12-20T02:23:18;9.80;99.90
45008;DHT22;30743;52.008;5.644;2023-12-20T02:25:44;9.70;99.90
45008;DHT22;30743;52.008;5.644;2023-12-20T02:28:10;9.60;99.90
45008;DHT22;30743;52.008;5.644;2023-12-20T02:30:35;9.70;99.90
45008;DHT22;30743;52.008;5.644;2023-12-20T02:33:01;9.70;99.90
45008;DHT22;30743;52.008;5.644;2023-12-20T02:35:29;9.70;99.90
45008;DHT22;30743;52.008;5.644;2023-12-20T02:37:54;9.90;99.90
45008;DHT22;30743;52.008;5.644;2023-12-20T02:40:20;9.90;99.90
45008;DHT22;30743;52.008;5.644;2023-12-20T02:42:45;9.90;99.90
45008;DHT22;30743;52.008;5.644;2023-12-20T02:45:11;9.90;99.90
45008;DHT22;30743;52.008;5.644;2023-12-20T02:47:36;10.00;99.90
45008;DHT22;30743;52.008;5.644;2023-12-20T02:50:02;9.80;99.90
45008;DHT22;30743;52.008;5.644;2023-12-20T02:52:29;9.80;99.90
45008;DHT22;30743;52.008;5.644;2023-12-20T02:54:54;9.80;99.90
45008;DHT22;30743;52.008;5.644;2023-12-20T02:57:20;9.70;99.90
45008;DHT22;30743;52.008;5.644;2023-12-20T02:59:45;9.70;99.90
45008;DHT22;30743;52.008;5.644;2023-12-20T03:02:11;9.90;99.90
45008;DHT22;30743;52.008;5.644;2023-12-20T03:04:36;9.90;99.90
45008;DHT22;30743;52.008;5.644;2023-12-20T03:07:02;9.80;99.90
45008;DHT22;30743;52.008;5.644;2023-12-20T03:09:27;9.70;99.90
45008;DHT22;30743;52.008;5.644;2023-12-20T03:11:53;9.60;99.90
45008;DHT22;30743;52.008;5.644;2023-12-20T03:14:18;9.30;99.90
45008;DHT22;30743;52.008;5.644;2023-12-20T03:16:49;9.20;99.90
45008;DHT22;30743;52.008;5.644;2023-12-20T03:19:16;9.20;99.90
45008;DHT22;30743;52.008;5.644;2023-12-20T03:21:41;9.10;99.90
45008;DHT22;30743;52.008;5.644;2023-12-20T03:24:07;9.00;99.90
45008;DHT22;30743;52.008;5.644;2023-12-20T03:26:32;9.10;99.90
45008;DHT22;30743;52.008;5.644;2023-12-20T03:28:58;9.10;99.90
45008;DHT22;30743;52.008;5.644;2023-12-20T03:31:24;9.00;99.90
45008;DHT22;30743;52.008;5.644;2023-12-20T03:33:49;9.30;99.90
45008;DHT22;30743;52.008;5.644;2023-12-20T03:36:16;9.40;99.90
45008;DHT22;30743;52.008;5.644;2023-12-20T03:38:42;9.30;99.90
45008;DHT22;30743;52.008;5.644;2023-12-20T03:41:07;9.40;99.90
45008;DHT22;30743;52.008;5.644;2023-12-20T03:43:33;9.50;99.90
45008;DHT22;30743;52.008;5.644;2023-12-20T03:45:59;9.30;99.90
45008;DHT22;30743;52.008;5.644;2023-12-20T03:48:25;9.30;99.90
45008;DHT22;30743;52.008;5.644;2023-12-20T03:50:51;9.50;99.90
45008;DHT22;30743;52.008;5.644;2023-12-20T03:53:16;9.50;99.90
45008;DHT22;30743;52.008;5.644;2023-12-20T03:55:42;9.60;99.90
45008;DHT22;30743;52.008;5.644;2023-12-20T03:58:07;9.50;99.90
45008;DHT22;30743;52.008;5.644;2023-12-20T04:00:33;9.80;99.90
45008;DHT22;30743;52.008;5.644;2023-12-20T04:02:58;9.60;99.90
45008;DHT22;30743;52.008;5.644;2023-12-20T04:05:24;9.70;99.90
45008;DHT22;30743;52.008;5.644;2023-12-20T04:07:49;9.70;99.90
45008;DHT22;30743;52.008;5.644;2023-12-20T04:10:16;9.80;99.90
45008;DHT22;30743;52.008;5.644;2023-12-20T04:12:41;9.90;99.90
45008;DHT22;30743;52.008;5.644;2023-12-20T04:15:07;9.90;99.90
45008;DHT22;30743;52.008;5.644;2023-12-20T04:17:35;10.00;99.90
45008;DHT22;30743;52.008;5.644;2023-12-20T04:20:01;10.10;99.90
45008;DHT22;30743;52.008;5.644;2023-12-20T04:22:27;10.10;99.90
45008;DHT22;30743;52.008;5.644;2023-12-20T04:24:52;10.10;99.90
45008;DHT22;30743;52.008;5.644;2023-12-20T04:27:18;10.10;99.90
45008;DHT22;30743;52.008;5.644;2023-12-20T04:29:43;10.30;99.90
45008;DHT22;30743;52.008;5.644;2023-12-20T04:32:09;10.30;99.90
45008;DHT22;30743;52.008;5.644;2023-12-20T04:34:34;10.10;99.90
45008;DHT22;30743;52.008;5.644;2023-12-20T04:37:00;10.10;99.90
45008;DHT22;30743;52.008;5.644;2023-12-20T04:39:27;10.00;99.90
45008;DHT22;30743;52.008;5.644;2023-12-20T04:41:52;10.00;99.90
45008;DHT22;30743;52.008;5.644;2023-12-20T04:44:18;10.10;99.90
45008;DHT22;30743;52.008;5.644;2023-12-20T04:46:44;10.20;99.90
45008;DHT22;30743;52.008;5.644;2023-12-20T04:49:09;10.20;99.90
45008;DHT22;30743;52.008;5.644;2023-12-20T04:51:35;10.20;99.90
45008;DHT22;30743;52.008;5.644;2023-12-20T04:54:01;10.30;99.90
45008;DHT22;30743;52.008;5.644;2023-12-20T04:56:27;10.30;99.90
45008;DHT22;30743;52.008;5.644;2023-12-20T04:58:53;10.50;99.90
45008;DHT22;30743;52.008;5.644;2023-12-20T05:01:18;11.10;99.90
45008;DHT22;30743;52.008;5.644;2023-12-20T05:03:44;10.60;99.90
45008;DHT22;30743;52.008;5.644;2023-12-20T05:06:10;10.90;99.90
45008;DHT22;30743;52.008;5.644;2023-12-20T05:08:36;10.50;99.90
45008;DHT22;30743;52.008;5.644;2023-12-20T05:11:01;10.60;99.90
45008;DHT22;30743;52.008;5.644;2023-12-20T05:13:27;10.60;99.90
45008;DHT22;30743;52.008;5.644;2023-12-20T05:15:53;10.60;99.90
45008;DHT22;30743;52.008;5.644;2023-12-20T05:18:18;10.50;99.90
45008;DHT22;30743;52.008;5.644;2023-12-20T05:20:44;10.50;99.90
45008;DHT22;30743;52.008;5.644;2023-12-20T05:23:09;10.60;99.90
45008;DHT22;30743;52.008;5.644;2023-12-20T05:25:35;10.70;99.90
45008;DHT22;30743;52.008;5.644;2023-12-20T05:28:00;10.80;99.90
45008;DHT22;30743;52.008;5.644;2023-12-20T05:30:26;11.00;99.90
45008;DHT22;30743;52.008;5.644;2023-12-20T05:32:52;10.60;99.90
45008;DHT22;30743;52.008;5.644;2023-12-20T05:35:17;10.50;99.90
45008;DHT22;30743;52.008;5.644;2023-12-20T05:37:44;10.70;99.90
45008;DHT22;30743;52.008;5.644;2023-12-20T05:40:10;10.70;99.90
45008;DHT22;30743;52.008;5.644;2023-12-20T05:42:38;10.60;99.90
45008;DHT22;30743;52.008;5.644;2023-12-20T05:45:05;10.80;99.90
45008;DHT22;30743;52.008;5.644;2023-12-20T05:47:31;10.90;99.90
45008;DHT22;30743;52.008;5.644;2023-12-20T05:49:56;11.20;99.90
45008;DHT22;30743;52.008;5.644;2023-12-20T05:52:22;11.20;99.90
45008;DHT22;30743;52.008;5.644;2023-12-20T05:54:47;11.10;99.90
45008;DHT22;30743;52.008;5.644;2023-12-20T05:57:13;11.10;99.90
45008;DHT22;30743;52.008;5.644;2023-12-20T05:59:39;11.10;99.90
45008;DHT22;30743;52.008;5.644;2023-12-20T06:02:05;11.00;99.90
45008;DHT22;30743;52.008;5.644;2023-12-20T06:04:30;10.70;99.90
45008;DHT22;30743;52.008;5.644;2023-12-20T06:06:56;10.80;99.90
45008;DHT22;30743;52.008;5.644;2023-12-20T06:09:22;10.60;99.90
45008;DHT22;30743;52.008;5.644;2023-12-20T06:11:47;10.80;99.90
45008;DHT22;30743;52.008;5.644;2023-12-20T06:14:13;10.60;99.90
45008;DHT22;30743;52.008;5.644;2023-12-20T06:16:38;10.50;99.90
45008;DHT22;30743;52.008;5.644;2023-12-20T06:19:04;10.60;99.90
45008;DHT22;30743;52.008;5.644;2023-12-20T06:21:30;10.40;99.90
45008;DHT22;30743;52.008;5.644;2023-12-20T06:23:55;10.30;99.90
45008;DHT22;30743;52.008;5.644;2023-12-20T06:26:21;10.60;99.90
45008;DHT22;30743;52.008;5.644;2023-12-20T06:28:46;10.70;99.90
45008;DHT22;30743;52.008;5.644;2023-12-20T06:31:12;10.80;99.90
45008;DHT22;30743;52.008;5.644;2023-12-20T06:33:38;10.80;99.90
45008;DHT22;30743;52.008;5.644;2023-12-20T06:36:06;10.70;99.90
45008;DHT22;30743;52.008;5.644;2023-12-20T06:38:32;10.70;99.90
45008;DHT22;30743;52.008;5.644;2023-12-20T06:40:57;10.50;99.90
45008;DHT22;30743;52.008;5.644;2023-12-20T06:43:24;10.60;99.90
45008;DHT22;30743;52.008;5.644;2023-12-20T06:45:49;10.70;99.90
45008;DHT22;30743;52.008;5.644;2023-12-20T06:48:16;11.30;99.90
45008;DHT22;30743;52.008;5.644;2023-12-20T06:50:42;10.60;99.90
45008;DHT22;30743;52.008;5.644;2023-12-20T06:53:07;10.60;99.90
45008;DHT22;30743;52.008;5.644;2023-12-20T06:55:36;10.50;99.90
45008;DHT22;30743;52.008;5.644;2023-12-20T06:58:03;10.30;99.90
45008;DHT22;30743;52.008;5.644;2023-12-20T07:00:30;10.40;99.90
45008;DHT22;30743;52.008;5.644;2023-12-20T07:02:56;10.00;99.90
45008;DHT22;30743;52.008;5.644;2023-12-20T07:05:21;10.10;99.90
45008;DHT22;30743;52.008;5.644;2023-12-20T07:07:47;10.40;99.90
45008;DHT22;30743;52.008;5.644;2023-12-20T07:10:13;10.40;99.90
45008;DHT22;30743;52.008;5.644;2023-12-20T07:12:39;10.10;99.90
45008;DHT22;30743;52.008;5.644;2023-12-20T07:15:04;10.00;99.90
45008;DHT22;30743;52.008;5.644;2023-12-20T07:17:33;10.00;99.90
45008;DHT22;30743;52.008;5.644;2023-12-20T07:19:59;10.00;99.90
45008;DHT22;30743;52.008;5.644;2023-12-20T07:22:31;10.00;99.90
45008;DHT22;30743;52.008;5.644;2023-12-20T07:24:58;9.80;99.90
45008;DHT22;30743;52.008;5.644;2023-12-20T07:27:24;9.90;99.90
45008;DHT22;30743;52.008;5.644;2023-12-20T07:29:49;10.00;99.90
45008;DHT22;30743;52.008;5.644;2023-12-20T07:32:15;9.90;99.90
45008;DHT22;30743;52.008;5.644;2023-12-20T07:34:40;10.00;99.90
45008;DHT22;30743;52.008;5.644;2023-12-20T07:37:06;9.80;99.90
45008;DHT22;30743;52.008;5.644;2023-12-20T07:39:31;9.80;99.90
45008;DHT22;30743;52.008;5.644;2023-12-20T07:41:57;10.00;99.90
45008;DHT22;30743;52.008;5.644;2023-12-20T07:44:23;10.10;99.90
45008;DHT22;30743;52.008;5.644;2023-12-20T07:46:48;10.10;99.90
45008;DHT22;30743;52.008;5.644;2023-12-20T07:49:14;10.00;99.90
45008;DHT22;30743;52.008;5.644;2023-12-20T07:51:39;9.90;99.90
45008;DHT22;30743;52.008;5.644;2023-12-20T07:54:05;10.00;99.90
45008;DHT22;30743;52.008;5.644;2023-12-20T07:56:31;11.20;99.90
45008;DHT22;30743;52.008;5.644;2023-12-20T07:58:56;10.10;99.90
45008;DHT22;30743;52.008;5.644;2023-12-20T08:01:22;10.10;99.90
45008;DHT22;30743;52.008;5.644;2023-12-20T08:03:49;10.30;99.90
45008;DHT22;30743;52.008;5.644;2023-12-20T08:06:15;10.40;99.90
45008;DHT22;30743;52.008;5.644;2023-12-20T08:08:42;10.30;99.90
45008;DHT22;30743;52.008;5.644;2023-12-20T08:11:08;10.30;99.90
45008;DHT22;30743;52.008;5.644;2023-12-20T08:13:33;10.10;99.90
45008;DHT22;30743;52.008;5.644;2023-12-20T08:15:59;10.20;99.90
45008;DHT22;30743;52.008;5.644;2023-12-20T08:18:25;10.00;99.90
45008;DHT22;30743;52.008;5.644;2023-12-20T08:20:50;10.40;99.90
45008;DHT22;30743;52.008;5.644;2023-12-20T08:23:18;9.90;99.90
45008;DHT22;30743;52.008;5.644;2023-12-20T08:25:45;9.90;99.90
45008;DHT22;30743;52.008;5.644;2023-12-20T08:28:11;10.00;99.90
45008;DHT22;30743;52.008;5.644;2023-12-20T08:30:37;10.00;99.90
45008;DHT22;30743;52.008;5.644;2023-12-20T08:33:02;9.90;99.90
45008;DHT22;30743;52.008;5.644;2023-12-20T08:35:28;9.80;99.90
45008;DHT22;30743;52.008;5.644;2023-12-20T08:37:53;9.80;99.90
45008;DHT22;30743;52.008;5.644;2023-12-20T08:40:19;9.90;99.90
45008;DHT22;30743;52.008;5.644;2023-12-20T08:42:45;10.10;99.90
45008;DHT22;30743;52.008;5.644;2023-12-20T08:45:11;10.10;99.90
45008;DHT22;30743;52.008;5.644;2023-12-20T08:47:37;10.10;99.90
45008;DHT22;30743;52.008;5.644;2023-12-20T08:50:03;10.10;99.90
45008;DHT22;30743;52.008;5.644;2023-12-20T08:52:29;10.00;99.90
45008;DHT22;30743;52.008;5.644;2023-12-20T08:54:55;10.00;99.90
45008;DHT22;30743;52.008;5.644;2023-12-20T08:57:20;10.00;99.90
45008;DHT22;30743;52.008;5.644;2023-12-20T08:59:47;10.00;99.90
45008;DHT22;30743;52.008;5.644;2023-12-20T09:02:14;10.10;99.90
45008;DHT22;30743;52.008;5.644;2023-12-20T09:04:39;10.20;99.90
45008;DHT22;30743;52.008;5.644;2023-12-20T09:07:05;10.10;99.90
45008;DHT22;30743;52.008;5.644;2023-12-20T09:09:30;10.20;99.90
45008;DHT22;30743;52.008;5.644;2023-12-20T09:11:57;10.30;99.90
45008;DHT22;30743;52.008;5.644;2023-12-20T09:14:23;10.20;99.90
45008;DHT22;30743;52.008;5.644;2023-12-20T09:16:49;10.20;99.90
45008;DHT22;30743;52.008;5.644;2023-12-20T09:19:19;10.10;99.90
45008;DHT22;30743;52.008;5.644;2023-12-20T09:21:44;10.30;99.90
45008;DHT22;30743;52.008;5.644;2023-12-20T09:24:10;10.20;99.90
45008;DHT22;30743;52.008;5.644;2023-12-20T09:26:35;10.30;99.90
45008;DHT22;30743;52.008;5.644;2023-12-20T09:29:01;10.20;99.90
45008;DHT22;30743;52.008;5.644;2023-12-20T09:31:26;10.10;99.90
45008;DHT22;30743;52.008;5.644;2023-12-20T09:33:52;10.00;99.90
45008;DHT22;30743;52.008;5.644;2023-12-20T09:36:18;10.20;99.90
45008;DHT22;30743;52.008;5.644;2023-12-20T09:38:43;10.00;99.90
45008;DHT22;30743;52.008;5.644;2023-12-20T09:41:09;10.00;99.90
45008;DHT22;30743;52.008;5.644;2023-12-20T09:43:37;10.10;99.90
45008;DHT22;30743;52.008;5.644;2023-12-20T09:46:05;10.10;99.90
45008;DHT22;30743;52.008;5.644;2023-12-20T09:48:33;10.30;99.90
45008;DHT22;30743;52.008;5.644;2023-12-20T09:50:59;10.60;99.90
45008;DHT22;30743;52.008;5.644;2023-12-20T09:53:25;10.40;99.90
45008;DHT22;30743;52.008;5.644;2023-12-20T09:55:58;10.30;99.90
45008;DHT22;30743;52.008;5.644;2023-12-20T09:58:24;10.30;99.90
45008;DHT22;30743;52.008;5.644;2023-12-20T10:00:50;10.40;99.90
45008;DHT22;30743;52.008;5.644;2023-12-20T10:03:17;10.80;99.90
45008;DHT22;30743;52.008;5.644;2023-12-20T10:05:44;10.90;99.90
45008;DHT22;30743;52.008;5.644;2023-12-20T10:08:11;11.20;99.90
45008;DHT22;30743;52.008;5.644;2023-12-20T10:10:36;11.10;99.90
45008;DHT22;30743;52.008;5.644;2023-12-20T10:13:07;11.00;99.90
45008;DHT22;30743;52.008;5.644;2023-12-20T10:15:36;11.20;99.90
45008;DHT22;30743;52.008;5.644;2023-12-20T10:18:03;11.20;99.90
45008;DHT22;30743;52.008;5.644;2023-12-20T10:20:29;11.20;99.90
45008;DHT22;30743;52.008;5.644;2023-12-20T10:22:56;12.20;99.90
45008;DHT22;30743;52.008;5.644;2023-12-20T10:25:23;11.60;99.90
45008;DHT22;30743;52.008;5.644;2023-12-20T10:27:50;11.70;99.90
45008;DHT22;30743;52.008;5.644;2023-12-20T10:30:33;13.20;99.90
45008;DHT22;30743;52.008;5.644;2023-12-20T10:32:59;11.80;99.90
45008;DHT22;30743;52.008;5.644;2023-12-20T10:35:24;11.90;99.90
45008;DHT22;30743;52.008;5.644;2023-12-20T10:37:55;11.80;99.90
45008;DHT22;30743;52.008;5.644;2023-12-20T10:40:22;12.00;99.90
45008;DHT22;30743;52.008;5.644;2023-12-20T10:42:48;12.10;99.90
45008;DHT22;30743;52.008;5.644;2023-12-20T10:45:16;13.30;99.90
45008;DHT22;30743;52.008;5.644;2023-12-20T10:47:44;12.10;99.90
45008;DHT22;30743;52.008;5.644;2023-12-20T10:50:11;12.20;99.90
45008;DHT22;30743;52.008;5.644;2023-12-20T10:52:37;12.10;99.90
45008;DHT22;30743;52.008;5.644;2023-12-20T10:55:04;12.20;99.90
45008;DHT22;30743;52.008;5.644;2023-12-20T10:57:30;12.30;99.90
45008;DHT22;30743;52.008;5.644;2023-12-20T11:00:00;12.10;99.90
45008;DHT22;30743;52.008;5.644;2023-12-20T11:02:31;12.20;99.90
45008;DHT22;30743;52.008;5.644;2023-12-20T11:08:00;12.30;99.90
45008;DHT22;30743;52.008;5.644;2023-12-20T11:10:37;12.60;99.90
45008;DHT22;30743;52.008;5.644;2023-12-20T11:13:12;12.80;99.90
45008;DHT22;30743;52.008;5.644;2023-12-20T11:15:42;12.90;99.90
45008;DHT22;30743;52.008;5.644;2023-12-20T11:18:08;13.10;99.90
45008;DHT22;30743;52.008;5.644;2023-12-20T11:20:39;13.20;99.90
45008;DHT22;30743;52.008;5.644;2023-12-20T11:23:05;13.00;99.90
45008;DHT22;30743;52.008;5.644;2023-12-20T11:25:49;12.90;99.90
45008;DHT22;30743;52.008;5.644;2023-12-20T11:28:21;12.90;99.90
45008;DHT22;30743;52.008;5.644;2023-12-20T11:30:50;12.90;99.90
45008;DHT22;30743;52.008;5.644;2023-12-20T11:33:16;13.20;99.90
45008;DHT22;30743;52.008;5.644;2023-12-20T11:35:42;12.80;99.90
45008;DHT22;30743;52.008;5.644;2023-12-20T11:38:09;12.90;99.90
45008;DHT22;30743;52.008;5.644;2023-12-20T11:40:35;12.80;99.90
45008;DHT22;30743;52.008;5.644;2023-12-20T11:43:02;12.80;99.90
45008;DHT22;30743;52.008;5.644;2023-12-20T11:45:27;12.90;99.90
45008;DHT22;30743;52.008;5.644;2023-12-20T11:47:53;12.90;99.90
45008;DHT22;30743;52.008;5.644;2023-12-20T11:50:20;13.10;99.90
45008;DHT22;30743;52.008;5.644;2023-12-20T11:52:47;13.20;99.90
45008;DHT22;30743;52.008;5.644;2023-12-20T11:55:12;13.20;99.90
45008;DHT22;30743;52.008;5.644;2023-12-20T11:57:38;13.20;99.90
45008;DHT22;30743;52.008;5.644;2023-12-20T12:00:04;13.40;99.90
45008;DHT22;30743;52.008;5.644;2023-12-20T12:02:31;13.60;99.90
45008;DHT22;30743;52.008;5.644;2023-12-20T12:04:57;13.60;99.90
45008;DHT22;30743;52.008;5.644;2023-12-20T12:07:25;13.40;99.90
45008;DHT22;30743;52.008;5.644;2023-12-20T12:09:50;13.40;99.90
45008;DHT22;30743;52.008;5.644;2023-12-20T12:12:17;13.50;99.90
45008;DHT22;30743;52.008;5.644;2023-12-20T12:14:44;13.60;99.90
45008;DHT22;30743;52.008;5.644;2023-12-20T12:17:13;13.70;99.90
45008;DHT22;30743;52.008;5.644;2023-12-20T12:19:40;15.10;99.90
45008;DHT22;30743;52.008;5.644;2023-12-20T12:24:45;13.60;99.90
45008;DHT22;30743;52.008;5.644;2023-12-20T12:27:12;13.50;99.90
45008;DHT22;30743;52.008;5.644;2023-12-20T12:29:37;13.60;99.90
45008;DHT22;30743;52.008;5.644;2023-12-20T12:32:07;13.30;99.90
45008;DHT22;30743;52.008;5.644;2023-12-20T12:34:34;13.60;99.90
45008;DHT22;30743;52.008;5.644;2023-12-20T12:37:00;13.40;99.90
45008;DHT22;30743;52.008;5.644;2023-12-20T12:39:25;13.60;99.90
45008;DHT22;30743;52.008;5.644;2023-12-20T12:41:52;13.50;99.90
45008;DHT22;30743;52.008;5.644;2023-12-20T12:44:17;13.70;99.90
45008;DHT22;30743;52.008;5.644;2023-12-20T12:46:47;13.70;99.90
45008;DHT22;30743;52.008;5.644;2023-12-20T12:49:15;13.60;99.90
45008;DHT22;30743;52.008;5.644;2023-12-20T12:51:40;13.50;99.90
45008;DHT22;30743;52.008;5.644;2023-12-20T12:54:06;13.40;99.90
45008;DHT22;30743;52.008;5.644;2023-12-20T12:56:31;13.20;99.90
45008;DHT22;30743;52.008;5.644;2023-12-20T12:58:57;13.30;99.90
45008;DHT22;30743;52.008;5.644;2023-12-20T13:01:23;13.40;99.90
45008;DHT22;30743;52.008;5.644;2023-12-20T13:03:48;13.40;99.90
45008;DHT22;30743;52.008;5.644;2023-12-20T13:06:14;13.30;99.90
45008;DHT22;30743;52.008;5.644;2023-12-20T13:08:40;13.50;99.90
45008;DHT22;30743;52.008;5.644;2023-12-20T13:11:05;13.40;99.90
45008;DHT22;30743;52.008;5.644;2023-12-20T13:13:31;13.40;99.90
45008;DHT22;30743;52.008;5.644;2023-12-20T13:15:57;13.20;99.90
45008;DHT22;30743;52.008;5.644;2023-12-20T13:18:22;13.30;99.90
45008;DHT22;30743;52.008;5.644;2023-12-20T13:20:48;13.30;99.90
45008;DHT22;30743;52.008;5.644;2023-12-20T13:23:14;13.20;99.90
45008;DHT22;30743;52.008;5.644;2023-12-20T13:25:41;13.00;99.90
45008;DHT22;30743;52.008;5.644;2023-12-20T13:28:07;13.10;99.90
45008;DHT22;30743;52.008;5.644;2023-12-20T13:30:34;13.10;99.90
45008;DHT22;30743;52.008;5.644;2023-12-20T13:32:59;13.00;99.90
45008;DHT22;30743;52.008;5.644;2023-12-20T13:35:25;13.00;99.90
45008;DHT22;30743;52.008;5.644;2023-12-20T13:37:50;13.10;99.90
45008;DHT22;30743;52.008;5.644;2023-12-20T13:40:16;13.10;99.90
45008;DHT22;30743;52.008;5.644;2023-12-20T13:42:42;13.10;99.90
45008;DHT22;30743;52.008;5.644;2023-12-20T13:45:08;13.10;99.90
45008;DHT22;30743;52.008;5.644;2023-12-20T13:47:35;13.30;99.90
45008;DHT22;30743;52.008;5.644;2023-12-20T13:50:00;13.30;99.90
45008;DHT22;30743;52.008;5.644;2023-12-20T13:52:26;13.20;99.90
45008;DHT22;30743;52.008;5.644;2023-12-20T13:54:52;13.00;99.90
45008;DHT22;30743;52.008;5.644;2023-12-20T13:57:17;12.80;99.90
45008;DHT22;30743;52.008;5.644;2023-12-20T13:59:43;12.80;99.90
45008;DHT22;30743;52.008;5.644;2023-12-20T14:02:09;14.30;99.90
45008;DHT22;30743;52.008;5.644;2023-12-20T14:04:34;13.00;99.90
45008;DHT22;30743;52.008;5.644;2023-12-20T14:07:01;12.90;99.90
45008;DHT22;30743;52.008;5.644;2023-12-20T14:09:26;12.90;99.90
45008;DHT22;30743;52.008;5.644;2023-12-20T14:11:52;13.00;99.90
45008;DHT22;30743;52.008;5.644;2023-12-20T14:14:17;12.70;99.90
45008;DHT22;30743;52.008;5.644;2023-12-20T14:16:43;13.00;99.90
45008;DHT22;30743;52.008;5.644;2023-12-20T14:19:11;13.00;99.90
45008;DHT22;30743;52.008;5.644;2023-12-20T14:21:36;12.90;99.90
45008;DHT22;30743;52.008;5.644;2023-12-20T14:24:02;13.00;99.90
45008;DHT22;30743;52.008;5.644;2023-12-20T14:26:29;13.20;99.90
45008;DHT22;30743;52.008;5.644;2023-12-20T14:28:55;13.30;99.90
45008;DHT22;30743;52.008;5.644;2023-12-20T14:31:21;13.30;99.90
45008;DHT22;30743;52.008;5.644;2023-12-20T14:33:48;13.30;99.90
45008;DHT22;30743;52.008;5.644;2023-12-20T14:36:16;13.20;99.90
45008;DHT22;30743;52.008;5.644;2023-12-20T14:38:43;13.00;99.90
45008;DHT22;30743;52.008;5.644;2023-12-20T14:41:09;12.80;99.90
45008;DHT22;30743;52.008;5.644;2023-12-20T14:43:34;12.80;99.90
45008;DHT22;30743;52.008;5.644;2023-12-20T14:46:00;13.80;99.90
45008;DHT22;30743;52.008;5.644;2023-12-20T14:48:26;12.70;99.90
45008;DHT22;30743;52.008;5.644;2023-12-20T14:50:53;12.60;99.90
45008;DHT22;30743;52.008;5.644;2023-12-20T14:53:19;12.60;99.90
45008;DHT22;30743;52.008;5.644;2023-12-20T14:55:44;12.50;99.90
45008;DHT22;30743;52.008;5.644;2023-12-20T14:58:10;12.50;99.90
45008;DHT22;30743;52.008;5.644;2023-12-20T15:00:36;12.50;99.90
45008;DHT22;30743;52.008;5.644;2023-12-20T15:03:02;12.10;99.90
45008;DHT22;30743;52.008;5.644;2023-12-20T15:05:29;12.20;99.90
45008;DHT22;30743;52.008;5.644;2023-12-20T15:07:55;12.10;99.90
45008;DHT22;30743;52.008;5.644;2023-12-20T15:10:20;12.10;99.90
45008;DHT22;30743;52.008;5.644;2023-12-20T15:12:46;12.00;99.90
45008;DHT22;30743;52.008;5.644;2023-12-20T15:15:12;12.10;99.90
45008;DHT22;30743;52.008;5.644;2023-12-20T15:17:38;12.10;99.90
45008;DHT22;30743;52.008;5.644;2023-12-20T15:20:04;12.00;99.90
45008;DHT22;30743;52.008;5.644;2023-12-20T15:22:30;11.90;99.90
45008;DHT22;30743;52.008;5.644;2023-12-20T15:24:57;12.00;99.90
45008;DHT22;30743;52.008;5.644;2023-12-20T15:27:22;11.90;99.90
45008;DHT22;30743;52.008;5.644;2023-12-20T15:29:48;11.70;99.90
45008;DHT22;30743;52.008;5.644;2023-12-20T15:32:15;11.70;99.90
45008;DHT22;30743;52.008;5.644;2023-12-20T15:34:41;11.70;99.90